sensor_id;sensor_type;location;lat;lon;timestamp;pressure;altitude;pressure_sealevel;temperature;humidity
10366;BME280;5229;41.820;23.490;2022-08-01T00:01:49;89981.00;;;19.33;53.00
10366;BME280;5229;41.820;23.490;2022-08-01T00:04:16;89979.50;;;19.32;52.99
10366;BME280;5229;41.820;23.490;2022-08-01T00:06:43;89979.50;;;19.32;52.81
10366;BME280;5229;41.820;23.490;2022-08-01T00:09:11;89981.75;;;19.30;53.00
10366;BME280;5229;41.820;23.490;2022-08-01T00:11:38;89974.16;;;19.25;53.10
10366;BME280;5229;41.820;23.490;2022-08-01T00:14:05;89977.47;;;19.22;53.25
10366;BME280;5229;41.820;23.490;2022-08-01T00:16:34;89975.16;;;19.17;53.07
10366;BME280;5229;41.820;23.490;2022-08-01T00:19:01;89975.84;;;19.14;53.26
10366;BME280;5229;41.820;23.490;2022-08-01T00:21:28;89972.06;;;19.11;53.02
10366;BME280;5229;41.820;23.490;2022-08-01T00:23:55;89967.94;;;19.10;53.31
10366;BME280;5229;41.820;23.490;2022-08-01T00:26:23;89966.00;;;19.07;53.23
10366;BME280;5229;41.820;23.490;2022-08-01T00:28:50;89966.66;;;19.01;53.23
10366;BME280;5229;41.820;23.490;2022-08-01T00:31:17;89963.28;;;19.00;53.12
10366;BME280;5229;41.820;23.490;2022-08-01T00:33:44;89959.50;;;18.98;52.88
10366;BME280;5229;41.820;23.490;2022-08-01T00:36:10;89962.47;;;18.96;53.15
10366;BME280;5229;41.820;23.490;2022-08-01T00:38:37;89960.19;;;18.95;53.06
10366;BME280;5229;41.820;23.490;2022-08-01T00:41:04;89960.19;;;18.95;52.68
10366;BME280;5229;41.820;23.490;2022-08-01T00:43:32;89959.44;;;18.94;52.55
10366;BME280;5229;41.820;23.490;2022-08-01T00:45:59;89953.41;;;18.94;52.57
10366;BME280;5229;41.820;23.490;2022-08-01T00:48:26;89953.47;;;18.97;52.16
10366;BME280;5229;41.820;23.490;2022-08-01T00:50:53;89960.66;;;19.00;52.05
10366;BME280;5229;41.820;23.490;2022-08-01T00:53:19;89963.72;;;19.06;52.03
10366;BME280;5229;41.820;23.490;2022-08-01T00:55:46;89957.41;;;19.10;51.94
10366;BME280;5229;41.820;23.490;2022-08-01T00:58:13;89960.03;;;19.10;51.89
10366;BME280;5229;41.820;23.490;2022-08-01T01:00:42;89958.16;;;19.11;51.73
10366;BME280;5229;41.820;23.490;2022-08-01T01:03:09;89960.41;;;19.09;51.82
10366;BME280;5229;41.820;23.490;2022-08-01T01:05:43;89958.94;;;19.11;51.64
10366;BME280;5229;41.820;23.490;2022-08-01T01:08:15;89947.28;;;19.12;51.61
10366;BME280;5229;41.820;23.490;2022-08-01T01:10:47;89961.19;;;19.13;51.61
10366;BME280;5229;41.820;23.490;2022-08-01T01:13:23;89955.19;;;19.12;51.48
10366;BME280;5229;41.820;23.490;2022-08-01T01:15:59;89954.72;;;19.07;51.77
10366;BME280;5229;41.820;23.490;2022-08-01T01:18:31;89950.88;;;19.01;51.98
10366;BME280;5229;41.820;23.490;2022-08-01T01:21:05;89951.59;;;18.98;51.92
10366;BME280;5229;41.820;23.490;2022-08-01T01:23:46;89945.13;;;18.92;52.00
10366;BME280;5229;41.820;23.490;2022-08-01T01:26:36;89951.03;;;18.85;52.18
10366;BME280;5229;41.820;23.490;2022-08-01T01:29:15;89948.72;;;18.80;52.41
10366;BME280;5229;41.820;23.490;2022-08-01T01:31:48;89942.22;;;18.74;52.36
10366;BME280;5229;41.820;23.490;2022-08-01T01:34:19;89934.31;;;18.71;52.51
10366;BME280;5229;41.820;23.490;2022-08-01T01:36:48;89937.94;;;18.63;52.82
10366;BME280;5229;41.820;23.490;2022-08-01T01:39:16;89940.06;;;18.54;53.02
10366;BME280;5229;41.820;23.490;2022-08-01T01:41:45;89935.84;;;18.49;53.36
10366;BME280;5229;41.820;23.490;2022-08-01T01:44:14;89931.59;;;18.41;53.67
10366;BME280;5229;41.820;23.490;2022-08-01T01:46:42;89922.41;;;18.32;53.48
10366;BME280;5229;41.820;23.490;2022-08-01T01:49:10;89929.88;;;18.30;53.59
10366;BME280;5229;41.820;23.490;2022-08-01T01:51:38;89925.28;;;18.23;54.05
10366;BME280;5229;41.820;23.490;2022-08-01T01:54:08;89921.06;;;18.19;53.70
10366;BME280;5229;41.820;23.490;2022-08-01T01:56:36;89919.97;;;18.20;53.68
10366;BME280;5229;41.820;23.490;2022-08-01T01:59:16;89923.34;;;18.20;53.37
10366;BME280;5229;41.820;23.490;2022-08-01T02:01:46;89925.28;;;18.23;53.06
10366;BME280;5229;41.820;23.490;2022-08-01T02:04:13;89927.56;;;18.25;52.99
10366;BME280;5229;41.820;23.490;2022-08-01T02:06:41;89932.13;;;18.28;52.93
10366;BME280;5229;41.820;23.490;2022-08-01T02:09:09;89927.56;;;18.25;52.18
10366;BME280;5229;41.820;23.490;2022-08-01T02:11:36;89926.06;;;18.24;52.09
10366;BME280;5229;41.820;23.490;2022-08-01T02:14:05;89925.31;;;18.27;51.57
10366;BME280;5229;41.820;23.490;2022-08-01T02:16:36;89937.38;;;18.28;50.98
10366;BME280;5229;41.820;23.490;2022-08-01T02:19:06;89917.44;;;18.27;50.93
10366;BME280;5229;41.820;23.490;2022-08-01T02:21:39;89924.25;;;18.28;50.59
10366;BME280;5229;41.820;23.490;2022-08-01T02:24:11;89929.50;;;18.28;50.43
10366;BME280;5229;41.820;23.490;2022-08-01T02:26:42;89935.09;;;18.26;50.03
10366;BME280;5229;41.820;23.490;2022-08-01T02:29:13;89933.94;;;18.24;49.79
10366;BME280;5229;41.820;23.490;2022-08-01T02:31:44;89934.19;;;18.19;49.87
10366;BME280;5229;41.820;23.490;2022-08-01T02:34:16;89925.94;;;18.17;49.48
10366;BME280;5229;41.820;23.490;2022-08-01T02:36:45;89922.88;;;18.15;49.57
10366;BME280;5229;41.820;23.490;2022-08-01T02:39:16;89924.34;;;18.12;49.51
10366;BME280;5229;41.820;23.490;2022-08-01T02:41:47;89925.09;;;18.13;49.26
10366;BME280;5229;41.820;23.490;2022-08-01T02:44:21;89921.38;;;18.14;49.32
10366;BME280;5229;41.820;23.490;2022-08-01T02:46:54;89925.09;;;18.13;49.18
10366;BME280;5229;41.820;23.490;2022-08-01T02:49:24;89918.34;;;18.12;48.90
10366;BME280;5229;41.820;23.490;2022-08-01T02:51:53;89921.66;;;18.09;48.73
10366;BME280;5229;41.820;23.490;2022-08-01T02:54:21;89924.69;;;18.11;48.39
10366;BME280;5229;41.820;23.490;2022-08-01T02:56:50;89915.72;;;18.12;47.75
10366;BME280;5229;41.820;23.490;2022-08-01T02:59:21;89914.59;;;18.13;47.05
10366;BME280;5229;41.820;23.490;2022-08-01T03:01:53;89922.06;;;18.11;46.89
10366;BME280;5229;41.820;23.490;2022-08-01T03:04:22;89917.59;;;18.11;46.47
10366;BME280;5229;41.820;23.490;2022-08-01T03:06:50;89913.09;;;18.12;46.55
10366;BME280;5229;41.820;23.490;2022-08-01T03:09:19;89917.53;;;18.08;46.76
10366;BME280;5229;41.820;23.490;2022-08-01T03:11:48;89911.72;;;17.99;46.55
10366;BME280;5229;41.820;23.490;2022-08-01T03:14:16;89920.66;;;17.94;46.70
10366;BME280;5229;41.820;23.490;2022-08-01T03:16:45;89911.69;;;17.95;46.17
10366;BME280;5229;41.820;23.490;2022-08-01T03:19:15;89914.34;;;17.99;45.98
10366;BME280;5229;41.820;23.490;2022-08-01T03:21:45;89924.50;;;18.00;45.37
10366;BME280;5229;41.820;23.490;2022-08-01T03:24:14;89919.97;;;17.97;45.48
10366;BME280;5229;41.820;23.490;2022-08-01T03:26:42;89918.75;;;17.91;45.51
10366;BME280;5229;41.820;23.490;2022-08-01T03:29:14;89920.94;;;17.89;45.83
10366;BME280;5229;41.820;23.490;2022-08-01T03:31:43;89923.22;;;17.91;45.76
10366;BME280;5229;41.820;23.490;2022-08-01T03:34:11;89917.97;;;17.91;45.14
10366;BME280;5229;41.820;23.490;2022-08-01T03:36:45;89923.66;;;17.93;44.84
10366;BME280;5229;41.820;23.490;2022-08-01T03:39:14;89918.06;;;17.94;44.87
10366;BME280;5229;41.820;23.490;2022-08-01T03:41:46;89915.44;;;17.94;44.66
10366;BME280;5229;41.820;23.490;2022-08-01T03:44:20;89912.50;;;17.99;44.42
10366;BME280;5229;41.820;23.490;2022-08-01T03:46:54;89910.34;;;18.05;44.07
10366;BME280;5229;41.820;23.490;2022-08-01T03:49:30;89914.59;;;18.13;43.76
10366;BME280;5229;41.820;23.490;2022-08-01T03:52:01;89920.81;;;18.24;43.31
10366;BME280;5229;41.820;23.490;2022-08-01T03:54:32;89930.69;;;18.34;43.53
10366;BME280;5229;41.820;23.490;2022-08-01T03:57:00;89911.81;;;18.47;43.30
10366;BME280;5229;41.820;23.490;2022-08-01T03:59:29;89914.59;;;18.58;42.67
10366;BME280;5229;41.820;23.490;2022-08-01T04:02:00;89916.28;;;18.69;42.08
10366;BME280;5229;41.820;23.490;2022-08-01T04:04:28;89924.00;;;18.85;41.69
10366;BME280;5229;41.820;23.490;2022-08-01T04:06:55;89921.56;;;18.99;41.67
10366;BME280;5229;41.820;23.490;2022-08-01T04:09:23;89928.19;;;19.15;41.67
10366;BME280;5229;41.820;23.490;2022-08-01T04:12:02;89922.41;;;19.32;41.64
10366;BME280;5229;41.820;23.490;2022-08-01T04:14:29;89925.16;;;19.43;41.75
10366;BME280;5229;41.820;23.490;2022-08-01T04:16:56;89930.69;;;19.64;41.87
10366;BME280;5229;41.820;23.490;2022-08-01T04:19:23;89932.41;;;19.86;41.51
10366;BME280;5229;41.820;23.490;2022-08-01T04:21:51;89939.81;;;20.10;41.32
10366;BME280;5229;41.820;23.490;2022-08-01T04:24:23;89943.09;;;20.33;41.93
10366;BME280;5229;41.820;23.490;2022-08-01T04:26:52;89945.84;;;20.47;43.10
10366;BME280;5229;41.820;23.490;2022-08-01T04:29:20;89950.41;;;20.54;44.36
10366;BME280;5229;41.820;23.490;2022-08-01T04:31:49;89954.97;;;20.60;44.98
10366;BME280;5229;41.820;23.490;2022-08-01T04:34:19;89956.88;;;20.63;45.25
10366;BME280;5229;41.820;23.490;2022-08-01T04:36:47;89963.75;;;20.71;45.38
10366;BME280;5229;41.820;23.490;2022-08-01T04:39:16;89950.28;;;20.83;45.64
10366;BME280;5229;41.820;23.490;2022-08-01T04:41:46;89952.63;;;20.95;45.81
10366;BME280;5229;41.820;23.490;2022-08-01T04:44:14;89954.59;;;21.05;45.79
10366;BME280;5229;41.820;23.490;2022-08-01T04:46:42;89954.31;;;21.17;45.97
10366;BME280;5229;41.820;23.490;2022-08-01T04:49:11;89943.47;;;21.36;45.32
10366;BME280;5229;41.820;23.490;2022-08-01T04:51:50;89943.19;;;21.55;44.92
10366;BME280;5229;41.820;23.490;2022-08-01T04:54:17;89949.38;;;21.77;44.27
10366;BME280;5229;41.820;23.490;2022-08-01T04:56:48;89940.72;;;21.90;43.31
10366;BME280;5229;41.820;23.490;2022-08-01T04:59:15;89941.91;;;22.03;42.83
10366;BME280;5229;41.820;23.490;2022-08-01T05:01:59;89939.69;;;22.26;42.65
10366;BME280;5229;41.820;23.490;2022-08-01T05:04:26;89936.72;;;22.49;42.26
10366;BME280;5229;41.820;23.490;2022-08-01T05:06:52;89936.00;;;22.69;41.63
10366;BME280;5229;41.820;23.490;2022-08-01T05:09:19;89943.56;;;22.96;41.32
10366;BME280;5229;41.820;23.490;2022-08-01T05:11:48;89950.72;;;23.13;40.96
10366;BME280;5229;41.820;23.490;2022-08-01T05:14:14;89948.84;;;23.24;40.67
10366;BME280;5229;41.820;23.490;2022-08-01T05:16:41;89945.03;;;23.39;40.64
10366;BME280;5229;41.820;23.490;2022-08-01T05:19:08;89948.78;;;23.55;40.10
10366;BME280;5229;41.820;23.490;2022-08-01T05:21:35;89945.34;;;23.69;39.97
10366;BME280;5229;41.820;23.490;2022-08-01T05:24:03;89959.31;;;23.80;39.56
10366;BME280;5229;41.820;23.490;2022-08-01T05:26:30;89956.25;;;23.85;39.37
10366;BME280;5229;41.820;23.490;2022-08-01T05:28:58;89957.75;;;23.86;39.47
10366;BME280;5229;41.820;23.490;2022-08-01T05:31:25;89964.22;;;23.81;39.58
10366;BME280;5229;41.820;23.490;2022-08-01T05:33:52;89952.50;;;23.75;39.66
10366;BME280;5229;41.820;23.490;2022-08-01T05:36:19;89956.28;;;23.78;39.79
10366;BME280;5229;41.820;23.490;2022-08-01T05:38:46;89955.53;;;23.77;39.75
10366;BME280;5229;41.820;23.490;2022-08-01T05:41:13;89956.28;;;23.78;39.82
10366;BME280;5229;41.820;23.490;2022-08-01T05:43:40;89952.13;;;23.77;39.80
10366;BME280;5229;41.820;23.490;2022-08-01T05:46:08;89957.03;;;23.82;39.85
10366;BME280;5229;41.820;23.490;2022-08-01T05:48:34;89966.06;;;24.02;39.46
10366;BME280;5229;41.820;23.490;2022-08-01T05:51:01;89955.34;;;24.30;38.87
10366;BME280;5229;41.820;23.490;2022-08-01T05:53:28;89958.25;;;24.49;38.94
10366;BME280;5229;41.820;23.490;2022-08-01T05:55:55;89957.78;;;24.61;37.89
10366;BME280;5229;41.820;23.490;2022-08-01T05:58:22;89950.59;;;24.69;37.98
10366;BME280;5229;41.820;23.490;2022-08-01T06:00:49;89953.88;;;24.87;37.29
10366;BME280;5229;41.820;23.490;2022-08-01T06:03:18;89949.28;;;24.91;36.70
10366;BME280;5229;41.820;23.490;2022-08-01T06:05:44;89942.88;;;24.88;36.59
10366;BME280;5229;41.820;23.490;2022-08-01T06:08:11;89944.34;;;24.93;36.18
10366;BME280;5229;41.820;23.490;2022-08-01T06:10:38;89949.63;;;24.96;36.01
10366;BME280;5229;41.820;23.490;2022-08-01T06:13:05;89936.69;;;25.02;35.39
10366;BME280;5229;41.820;23.490;2022-08-01T06:15:32;89929.09;;;25.04;35.20
10366;BME280;5229;41.820;23.490;2022-08-01T06:17:59;89935.06;;;25.15;34.73
10366;BME280;5229;41.820;23.490;2022-08-01T06:20:28;89924.75;;;25.24;34.65
10366;BME280;5229;41.820;23.490;2022-08-01T06:22:54;89924.28;;;25.36;34.82
10366;BME280;5229;41.820;23.490;2022-08-01T06:25:22;89924.50;;;25.52;34.35
10366;BME280;5229;41.820;23.490;2022-08-01T06:27:48;89924.72;;;25.68;34.14
10366;BME280;5229;41.820;23.490;2022-08-01T06:30:15;89918.88;;;25.80;34.04
10366;BME280;5229;41.820;23.490;2022-08-01T06:32:42;89911.47;;;25.98;33.78
10366;BME280;5229;41.820;23.490;2022-08-01T06:35:09;89916.97;;;26.14;33.31
10366;BME280;5229;41.820;23.490;2022-08-01T06:37:37;89913.38;;;26.28;32.91
10366;BME280;5229;41.820;23.490;2022-08-01T06:40:06;89917.72;;;26.45;32.67
10366;BME280;5229;41.820;23.490;2022-08-01T06:42:34;89921.03;;;26.52;32.57
10366;BME280;5229;41.820;23.490;2022-08-01T06:45:01;89906.19;;;26.55;32.86
10366;BME280;5229;41.820;23.490;2022-08-01T06:47:28;89906.22;;;26.51;33.09
10366;BME280;5229;41.820;23.490;2022-08-01T06:49:55;89911.38;;;26.35;33.00
10366;BME280;5229;41.820;23.490;2022-08-01T06:52:22;89911.00;;;26.37;33.01
10366;BME280;5229;41.820;23.490;2022-08-01T06:54:50;89913.94;;;26.42;32.71
10366;BME280;5229;41.820;23.490;2022-08-01T06:57:17;89900.59;;;26.46;32.55
10366;BME280;5229;41.820;23.490;2022-08-01T06:59:44;89905.78;;;26.56;32.45
10366;BME280;5229;41.820;23.490;2022-08-01T07:02:11;89909.06;;;26.67;32.56
10366;BME280;5229;41.820;23.490;2022-08-01T07:04:38;89898.38;;;26.71;32.11
10366;BME280;5229;41.820;23.490;2022-08-01T07:07:05;89899.19;;;26.68;32.01
10366;BME280;5229;41.820;23.490;2022-08-01T07:09:32;89902.13;;;26.73;31.85
10366;BME280;5229;41.820;23.490;2022-08-01T07:12:00;89912.78;;;26.73;31.81
10366;BME280;5229;41.820;23.490;2022-08-01T07:14:27;89895.75;;;26.67;32.08
10366;BME280;5229;41.820;23.490;2022-08-01T07:16:54;89896.91;;;26.66;31.89
10366;BME280;5229;41.820;23.490;2022-08-01T07:19:21;89890.06;;;26.65;32.07
10366;BME280;5229;41.820;23.490;2022-08-01T07:21:47;89881.69;;;26.67;32.30
10366;BME280;5229;41.820;23.490;2022-08-01T07:24:14;89888.44;;;26.75;31.93
10366;BME280;5229;41.820;23.490;2022-08-01T07:26:42;89897.50;;;26.77;31.91
10366;BME280;5229;41.820;23.490;2022-08-01T07:29:11;89899.25;;;26.87;32.10
10366;BME280;5229;41.820;23.490;2022-08-01T07:31:39;89887.59;;;27.04;31.72
10366;BME280;5229;41.820;23.490;2022-08-01T07:34:07;89884.91;;;27.04;31.58
10366;BME280;5229;41.820;23.490;2022-08-01T07:36:34;89895.50;;;27.08;31.96
10366;BME280;5229;41.820;23.490;2022-08-01T07:39:00;89895.22;;;27.25;31.56
10366;BME280;5229;41.820;23.490;2022-08-01T07:41:27;89894.44;;;27.48;31.55
10366;BME280;5229;41.820;23.490;2022-08-01T07:43:54;89892.47;;;27.71;31.18
10366;BME280;5229;41.820;23.490;2022-08-01T07:46:22;89904.31;;;27.70;31.15
10366;BME280;5229;41.820;23.490;2022-08-01T07:48:49;89906.03;;;27.61;31.23
10366;BME280;5229;41.820;23.490;2022-08-01T07:51:16;89900.78;;;27.57;31.39
10366;BME280;5229;41.820;23.490;2022-08-01T07:53:42;89897.47;;;27.50;31.60
10366;BME280;5229;41.820;23.490;2022-08-01T07:56:09;89884.56;;;27.68;31.55
10366;BME280;5229;41.820;23.490;2022-08-01T07:58:36;89895.09;;;27.75;31.65
10366;BME280;5229;41.820;23.490;2022-08-01T08:01:04;89883.13;;;27.83;31.19
10366;BME280;5229;41.820;23.490;2022-08-01T08:03:32;89895.34;;;28.03;31.37
10366;BME280;5229;41.820;23.490;2022-08-01T08:05:59;89887.38;;;28.20;31.03
10366;BME280;5229;41.820;23.490;2022-08-01T08:08:27;89878.19;;;28.21;31.05
10366;BME280;5229;41.820;23.490;2022-08-01T08:10:53;89888.06;;;28.24;30.96
10366;BME280;5229;41.820;23.490;2022-08-01T08:13:21;89888.66;;;28.31;30.99
10366;BME280;5229;41.820;23.490;2022-08-01T08:15:48;89887.22;;;28.27;30.69
10366;BME280;5229;41.820;23.490;2022-08-01T08:18:15;89898.41;;;28.22;31.49
10366;BME280;5229;41.820;23.490;2022-08-01T08:20:44;89888.06;;;28.24;30.89
10366;BME280;5229;41.820;23.490;2022-08-01T08:23:12;89890.78;;;28.40;31.26
10366;BME280;5229;41.820;23.490;2022-08-01T08:25:53;89883.31;;;28.67;30.75
10366;BME280;5229;41.820;23.490;2022-08-01T08:28:27;89900.03;;;28.87;30.64
10366;BME280;5229;41.820;23.490;2022-08-01T08:30:54;89893.97;;;29.02;30.53
10366;BME280;5229;41.820;23.490;2022-08-01T08:33:21;89896.25;;;29.04;30.30
10366;BME280;5229;41.820;23.490;2022-08-01T08:35:49;89890.06;;;29.07;30.49
10366;BME280;5229;41.820;23.490;2022-08-01T08:38:16;89885.38;;;29.11;29.82
10366;BME280;5229;41.820;23.490;2022-08-01T08:40:44;89884.94;;;29.28;29.77
10366;BME280;5229;41.820;23.490;2022-08-01T08:43:11;89886.16;;;30.00;29.32
10366;BME280;5229;41.820;23.490;2022-08-01T08:45:38;89885.97;;;30.86;28.43
10366;BME280;5229;41.820;23.490;2022-08-01T08:48:06;89885.53;;;31.72;27.40
10366;BME280;5229;41.820;23.490;2022-08-01T08:50:33;89890.91;;;32.79;26.57
10366;BME280;5229;41.820;23.490;2022-08-01T08:53:01;89899.44;;;34.65;24.41
10366;BME280;5229;41.820;23.490;2022-08-01T08:55:29;89894.97;;;36.25;22.98
10366;BME280;5229;41.820;23.490;2022-08-01T08:57:56;89902.50;;;37.66;21.21
10366;BME280;5229;41.820;23.490;2022-08-01T09:00:25;89907.16;;;38.41;20.11
10366;BME280;5229;41.820;23.490;2022-08-01T09:02:52;89906.63;;;39.08;19.51
10366;BME280;5229;41.820;23.490;2022-08-01T09:05:22;89918.44;;;40.03;18.30
10366;BME280;5229;41.820;23.490;2022-08-01T09:07:51;89913.53;;;40.66;17.66
10366;BME280;5229;41.820;23.490;2022-08-01T09:10:19;89913.88;;;41.12;17.71
10366;BME280;5229;41.820;23.490;2022-08-01T09:13:03;89909.91;;;41.79;17.63
10366;BME280;5229;41.820;23.490;2022-08-01T09:15:38;89918.16;;;42.58;16.65
10366;BME280;5229;41.820;23.490;2022-08-01T09:18:05;89923.41;;;43.03;16.25
10366;BME280;5229;41.820;23.490;2022-08-01T09:20:32;89915.59;;;43.29;16.01
10366;BME280;5229;41.820;23.490;2022-08-01T09:23:01;89917.31;;;43.61;15.76
10366;BME280;5229;41.820;23.490;2022-08-01T09:25:30;89916.00;;;43.97;15.37
10366;BME280;5229;41.820;23.490;2022-08-01T09:28:04;89918.53;;;43.95;14.42
10366;BME280;5229;41.820;23.490;2022-08-01T09:30:37;89909.13;;;43.91;14.65
10366;BME280;5229;41.820;23.490;2022-08-01T09:33:05;89907.72;;;43.79;15.01
10366;BME280;5229;41.820;23.490;2022-08-01T09:35:33;89906.78;;;44.00;14.46
10366;BME280;5229;41.820;23.490;2022-08-01T09:38:20;89899.34;;;44.25;14.49
10366;BME280;5229;41.820;23.490;2022-08-01T09:40:51;89914.56;;;44.44;14.49
10366;BME280;5229;41.820;23.490;2022-08-01T09:43:18;89903.44;;;44.37;14.65
10366;BME280;5229;41.820;23.490;2022-08-01T09:45:45;89913.41;;;44.58;13.81
10366;BME280;5229;41.820;23.490;2022-08-01T09:48:13;89904.69;;;44.60;13.76
10366;BME280;5229;41.820;23.490;2022-08-01T09:50:42;89907.50;;;44.73;13.58
10366;BME280;5229;41.820;23.490;2022-08-01T09:53:09;89897.97;;;44.98;14.10
10366;BME280;5229;41.820;23.490;2022-08-01T09:55:36;89901.28;;;45.28;13.88
10366;BME280;5229;41.820;23.490;2022-08-01T09:58:05;89909.84;;;45.56;13.66
10366;BME280;5229;41.820;23.490;2022-08-01T10:00:33;89920.09;;;45.69;13.45
10366;BME280;5229;41.820;23.490;2022-08-01T10:03:19;89913.38;;;45.51;13.16
10366;BME280;5229;41.820;23.490;2022-08-01T10:05:46;89914.09;;;45.39;13.62
10366;BME280;5229;41.820;23.490;2022-08-01T10:08:13;89898.75;;;45.30;13.68
10366;BME280;5229;41.820;23.490;2022-08-01T10:10:40;89897.78;;;45.46;13.25
10366;BME280;5229;41.820;23.490;2022-08-01T10:13:10;89909.19;;;45.82;13.44
10366;BME280;5229;41.820;23.490;2022-08-01T10:15:38;89901.41;;;45.99;13.07
10366;BME280;5229;41.820;23.490;2022-08-01T10:18:07;89901.84;;;46.03;12.96
10366;BME280;5229;41.820;23.490;2022-08-01T10:20:36;89899.81;;;46.03;13.23
10366;BME280;5229;41.820;23.490;2022-08-01T10:23:03;89901.34;;;46.17;13.21
10366;BME280;5229;41.820;23.490;2022-08-01T10:25:34;89906.41;;;46.13;12.62
10366;BME280;5229;41.820;23.490;2022-08-01T10:28:06;89879.66;;;45.56;13.33
10366;BME280;5229;41.820;23.490;2022-08-01T10:30:38;89887.19;;;45.37;13.38
10366;BME280;5229;41.820;23.490;2022-08-01T10:33:07;89883.03;;;45.31;13.42
10366;BME280;5229;41.820;23.490;2022-08-01T10:35:35;89876.19;;;44.87;13.04
10366;BME280;5229;41.820;23.490;2022-08-01T10:38:02;89880.03;;;44.60;13.46
10366;BME280;5229;41.820;23.490;2022-08-01T10:40:30;89869.44;;;43.79;14.03
10366;BME280;5229;41.820;23.490;2022-08-01T10:42:57;89866.88;;;42.46;14.90
10366;BME280;5229;41.820;23.490;2022-08-01T10:45:25;89866.88;;;41.06;16.25
10366;BME280;5229;41.820;23.490;2022-08-01T10:47:59;89857.44;;;39.68;17.23
10366;BME280;5229;41.820;23.490;2022-08-01T10:50:32;89849.41;;;38.55;17.62
10366;BME280;5229;41.820;23.490;2022-08-01T10:53:07;89843.31;;;37.59;18.41
10366;BME280;5229;41.820;23.490;2022-08-01T10:55:47;89838.81;;;36.73;19.93
10366;BME280;5229;41.820;23.490;2022-08-01T10:58:13;89843.06;;;35.98;20.22
10366;BME280;5229;41.820;23.490;2022-08-01T11:00:45;89837.69;;;35.18;20.81
10366;BME280;5229;41.820;23.490;2022-08-01T11:03:14;89821.47;;;34.62;21.35
10366;BME280;5229;41.820;23.490;2022-08-01T11:05:42;89825.44;;;34.07;22.09
10366;BME280;5229;41.820;23.490;2022-08-01T11:08:21;89828.13;;;33.53;22.55
10366;BME280;5229;41.820;23.490;2022-08-01T11:10:48;89822.97;;;33.09;23.25
10366;BME280;5229;41.820;23.490;2022-08-01T11:16:27;89839.97;;;31.93;24.37
10366;BME280;5229;41.820;23.490;2022-08-01T11:18:55;89822.16;;;31.65;24.33
10366;BME280;5229;41.820;23.490;2022-08-01T11:22:00;89827.09;;;31.33;25.59
10366;BME280;5229;41.820;23.490;2022-08-01T11:24:54;89816.75;;;30.97;25.49
10366;BME280;5229;41.820;23.490;2022-08-01T11:27:25;89810.25;;;30.73;26.17
10366;BME280;5229;41.820;23.490;2022-08-01T11:30:22;89799.31;;;30.55;26.68
10366;BME280;5229;41.820;23.490;2022-08-01T11:32:52;89787.22;;;30.38;27.06
10366;BME280;5229;41.820;23.490;2022-08-01T11:35:21;89801.75;;;30.24;27.23
10366;BME280;5229;41.820;23.490;2022-08-01T11:37:50;89798.59;;;30.13;27.31
10366;BME280;5229;41.820;23.490;2022-08-01T11:40:19;89790.13;;;29.90;27.51
10366;BME280;5229;41.820;23.490;2022-08-01T11:42:47;89793.94;;;29.64;27.70
10366;BME280;5229;41.820;23.490;2022-08-01T11:45:14;89791.47;;;29.41;28.17
10366;BME280;5229;41.820;23.490;2022-08-01T11:47:46;89795.69;;;29.26;28.73
10366;BME280;5229;41.820;23.490;2022-08-01T11:50:31;89796.91;;;28.93;28.63
10366;BME280;5229;41.820;23.490;2022-08-01T11:52:59;89780.81;;;28.80;29.40
10366;BME280;5229;41.820;23.490;2022-08-01T11:55:27;89777.13;;;28.74;29.63
10366;BME280;5229;41.820;23.490;2022-08-01T11:57:59;89781.88;;;28.67;29.99
10366;BME280;5229;41.820;23.490;2022-08-01T12:00:26;89791.22;;;28.59;30.08
10366;BME280;5229;41.820;23.490;2022-08-01T12:02:58;89786.41;;;28.54;29.77
10366;BME280;5229;41.820;23.490;2022-08-01T12:05:26;89788.41;;;28.50;30.20
10366;BME280;5229;41.820;23.490;2022-08-01T12:07:57;89783.28;;;28.39;29.98
10366;BME280;5229;41.820;23.490;2022-08-01T12:10:25;89784.34;;;28.26;30.31
10366;BME280;5229;41.820;23.490;2022-08-01T12:12:54;89775.28;;;28.23;30.50
10366;BME280;5229;41.820;23.490;2022-08-01T12:15:23;89776.94;;;28.17;30.66
10366;BME280;5229;41.820;23.490;2022-08-01T12:17:53;89764.50;;;28.11;30.82
10366;BME280;5229;41.820;23.490;2022-08-01T12:20:22;89768.41;;;28.06;31.43
10366;BME280;5229;41.820;23.490;2022-08-01T12:22:53;89762.06;;;28.00;31.19
10366;BME280;5229;41.820;23.490;2022-08-01T12:25:21;89763.38;;;27.92;31.80
10366;BME280;5229;41.820;23.490;2022-08-01T12:27:49;89767.41;;;27.80;31.58
10366;BME280;5229;41.820;23.490;2022-08-01T12:30:18;89759.28;;;27.68;31.61
10366;BME280;5229;41.820;23.490;2022-08-01T12:32:48;89764.00;;;27.60;31.88
10366;BME280;5229;41.820;23.490;2022-08-01T12:35:17;89771.59;;;27.62;32.03
10366;BME280;5229;41.820;23.490;2022-08-01T12:37:46;89773.16;;;27.59;32.14
10366;BME280;5229;41.820;23.490;2022-08-01T12:40:15;89788.06;;;27.57;32.26
10366;BME280;5229;41.820;23.490;2022-08-01T12:42:46;89778.59;;;27.56;31.82
10366;BME280;5229;41.820;23.490;2022-08-01T12:45:15;89774.47;;;27.51;31.87
10366;BME280;5229;41.820;23.490;2022-08-01T12:47:43;89778.38;;;27.47;32.06
10366;BME280;5229;41.820;23.490;2022-08-01T12:50:14;89775.78;;;27.43;32.67
10366;BME280;5229;41.820;23.490;2022-08-01T12:52:41;89774.28;;;27.42;32.79
10366;BME280;5229;41.820;23.490;2022-08-01T12:55:13;89772.41;;;27.39;32.59
10366;BME280;5229;41.820;23.490;2022-08-01T12:57:41;89776.34;;;27.35;32.38
10366;BME280;5229;41.820;23.490;2022-08-01T13:00:14;89779.41;;;27.33;32.47
10366;BME280;5229;41.820;23.490;2022-08-01T13:02:45;89773.31;;;27.33;32.74
10366;BME280;5229;41.820;23.490;2022-08-01T13:05:12;89775.56;;;27.34;32.88
10366;BME280;5229;41.820;23.490;2022-08-01T13:07:46;89770.75;;;27.29;32.65
10366;BME280;5229;41.820;23.490;2022-08-01T13:10:14;89772.69;;;27.25;32.58
10366;BME280;5229;41.820;23.490;2022-08-01T13:12:52;89765.66;;;27.15;32.66
10366;BME280;5229;41.820;23.490;2022-08-01T13:15:26;89772.38;;;27.20;32.66